Time;durP1;ratioP1;P1;durP2;ratioP2;P2;SDS_P1;SDS_P2;PMS_P1;PMS_P2;Temp;Humidity;BMP_temperature;BMP_pressure;BME280_temperature;BME280_humidity;BME280_pressure;Samples;Min_cycle;Max_cycle;Signal;HPM_P1;HPM_P2
2022/05/12 00:00:53;;;;;;;9.05;3.42;;;;;;;-149.78;100.00;50189.81;5107973;27;20027;-73
2022/05/12 00:03:19;;;;;;;6.18;2.35;;;;;;;-149.78;100.00;50228.94;5090690;27;20034;-73
2022/05/12 00:05:45;;;;;;;9.05;2.13;;;;;;;-149.78;100.00;50213.28;5107781;27;20568;-73
2022/05/12 00:08:12;;;;;;;7.25;2.20;;;;;;;-149.78;100.00;50250.44;5126200;27;20073;-73
2022/05/12 00:10:38;;;;;;;6.32;2.40;;;;;;;-149.78;100.00;50225.03;5125364;27;20027;-72
2022/05/12 00:13:04;;;;;;;12.38;2.58;;;;;;;-149.78;100.00;50221.13;5108151;27;20889;-73
2022/05/12 00:15:33;;;;;;;9.52;2.20;;;;;;;-149.78;100.00;50221.13;5107581;27;20095;-73
2022/05/12 00:18:02;;;;;;;5.72;2.38;;;;;;;-149.78;100.00;50250.44;5125591;27;20034;-73
2022/05/12 00:20:28;;;;;;;4.32;2.10;;;;;;;-149.78;100.00;50223.06;5107336;27;20066;-73
2022/05/12 00:23:22;;;;;;;6.78;2.70;;;;;;;-149.78;100.00;50244.59;5090634;27;20027;-73
2022/05/12 00:25:50;;;;;;;7.85;2.75;;;;;;;-149.78;100.00;50244.59;5123160;27;20397;-73
2022/05/12 00:28:20;;;;;;;4.78;2.00;;;;;;;-149.78;100.00;50234.81;5125662;27;20023;-73
2022/05/12 00:30:48;;;;;;;3.83;1.95;;;;;;;-149.78;100.00;50228.94;5125814;27;20554;-72
2022/05/12 00:33:15;;;;;;;5.70;2.88;;;;;;;-149.78;100.00;50221.13;5107680;27;20057;-73
2022/05/12 00:35:43;;;;;;;7.97;3.10;;;;;;;-149.78;100.00;50244.59;5106619;27;20031;-72
2022/05/12 00:38:10;;;;;;;5.25;2.70;;;;;;;-149.78;100.00;50219.16;5124767;27;20042;-73
2022/05/12 00:40:39;;;;;;;6.05;2.80;;;;;;;-149.78;100.00;50217.19;5106501;27;20028;-73
2022/05/12 00:43:07;;;;;;;5.15;2.45;;;;;;;-149.78;100.00;50221.13;5124869;27;20027;-73
2022/05/12 00:45:36;;;;;;;4.43;2.60;;;;;;;-149.78;100.00;50205.47;5124414;27;20142;-73
2022/05/12 00:48:04;;;;;;;4.30;2.00;;;;;;;-149.78;100.00;50217.19;5124714;27;20523;-74
2022/05/12 00:50:35;;;;;;;4.88;2.17;;;;;;;-149.78;100.00;50244.59;5107884;27;20110;-71
2022/05/12 00:53:04;;;;;;;8.40;2.80;;;;;;;-149.78;100.00;50234.81;5107327;27;20378;-71
2022/05/12 00:55:33;;;;;;;6.80;2.67;;;;;;;-149.78;100.00;50207.44;5124696;27;20031;-71
2022/05/12 00:58:01;;;;;;;7.03;2.45;;;;;;;-149.78;100.00;50223.06;5124885;27;20058;-71
2022/05/12 01:00:28;;;;;;;5.68;2.75;;;;;;;-149.78;100.00;50271.97;5128489;27;20031;-71
2022/05/12 01:02:56;;;;;;;4.38;2.40;;;;;;;-149.78;100.00;50226.97;5105888;27;20042;-71
2022/05/12 01:05:24;;;;;;;6.88;2.05;;;;;;;-149.78;100.00;50264.13;5104889;27;20023;-71
2022/05/12 01:07:55;;;;;;;5.93;2.67;;;;;;;-149.78;100.00;50287.59;5119449;27;20493;-71
2022/05/12 01:10:22;;;;;;;6.50;2.35;;;;;;;-149.78;100.00;50232.84;5124395;27;20471;-71
2022/05/12 01:12:49;;;;;;;9.98;3.03;;;;;;;-149.78;100.00;50244.59;5123923;27;20039;-72
2022/05/12 01:15:17;;;;;;;7.40;2.25;;;;;;;-149.78;100.00;50234.81;5105822;27;20023;-71
2022/05/12 01:17:44;;;;;;;6.38;2.58;;;;;;;-149.78;100.00;50225.03;5123792;27;20746;-71
2022/05/12 01:20:11;;;;;;;5.60;2.10;;;;;;;-149.78;100.00;50252.41;5106036;27;20130;-71
2022/05/12 01:23:05;;;;;;;7.00;2.30;;;;;;;-149.78;100.00;50221.13;5123392;27;20431;-72
2022/05/12 01:25:31;;;;;;;8.50;2.17;;;;;;;-149.78;100.00;50236.75;5115800;27;20039;-72
2022/05/12 01:27:56;;;;;;;6.93;2.42;;;;;;;-149.78;100.00;50256.31;5089228;27;20841;-72
2022/05/12 01:30:24;;;;;;;6.70;1.98;;;;;;;-149.78;100.00;50236.75;5105743;27;20579;-72
2022/05/12 01:32:50;;;;;;;5.22;2.20;;;;;;;-149.78;100.00;50211.34;5124296;27;20031;-72
2022/05/12 01:35:20;;;;;;;5.78;2.00;;;;;;;-149.78;100.00;50275.88;5105857;27;20080;-71
2022/05/12 01:37:46;;;;;;;4.35;2.33;;;;;;;-149.78;100.00;50256.31;5124385;27;20023;-71
2022/05/12 01:40:15;;;;;;;3.15;1.90;;;;;;;-149.78;100.00;50225.03;5123436;27;20035;-72
2022/05/12 01:42:41;;;;;;;6.13;1.92;;;;;;;-149.78;100.00;50236.75;5123655;27;20024;-72
2022/05/12 01:45:10;;;;;;;6.53;2.20;;;;;;;-149.78;100.00;50217.19;5123715;27;20126;-71
2022/05/12 01:47:36;;;;;;;4.60;2.13;;;;;;;-149.78;100.00;50225.03;5123825;27;20827;-71
2022/05/12 01:50:03;;;;;;;6.43;2.03;;;;;;;-149.78;100.00;50236.75;5103495;28;20031;-72
2022/05/12 01:52:29;;;;;;;7.53;2.50;;;;;;;-149.78;100.00;50264.13;5088529;28;20035;-71
2022/05/12 01:54:54;;;;;;;5.40;1.85;;;;;;;-149.78;100.00;50236.75;5071986;27;20390;-71
2022/05/12 01:57:22;;;;;;;4.43;2.30;;;;;;;-149.78;100.00;50264.13;5105871;28;20122;-72
2022/05/12 01:59:51;;;;;;;5.32;2.08;;;;;;;-149.78;100.00;50283.69;5105068;28;20042;-71
2022/05/12 02:02:28;;;;;;;6.40;1.92;;;;;;;-149.78;100.00;50244.59;5104755;28;20039;-71
2022/05/12 02:04:53;;;;;;;3.78;2.20;;;;;;;-149.78;100.00;50238.72;5123301;28;20035;-71
2022/05/12 02:07:19;;;;;;;3.92;1.95;;;;;;;-149.78;100.00;50264.13;5123156;28;20431;-71
2022/05/12 02:09:44;;;;;;;4.15;1.92;;;;;;;-149.78;100.00;50260.22;5104750;28;20035;-71
2022/05/12 02:12:10;;;;;;;4.65;2.10;;;;;;;-149.78;100.00;50248.50;5123260;28;20050;-71
2022/05/12 02:14:36;;;;;;;5.82;2.15;;;;;;;-149.78;100.00;50252.41;5122685;28;20934;-72
2022/05/12 02:17:02;;;;;;;4.63;1.80;;;;;;;-149.78;100.00;50240.66;5104475;28;20095;-72
2022/05/12 02:19:29;;;;;;;6.38;2.08;;;;;;;-149.78;100.00;50246.53;5123949;28;20031;-71
2022/05/12 02:21:54;;;;;;;4.88;2.05;;;;;;;-149.78;100.00;50277.81;5105926;28;20153;-72
2022/05/12 02:24:21;;;;;;;5.20;1.90;;;;;;;-149.78;100.00;50246.53;5123704;28;20150;-72
2022/05/12 02:26:47;;;;;;;5.38;1.70;;;;;;;-149.78;100.00;50221.13;5104773;28;20435;-71
2022/05/12 02:29:12;;;;;;;6.13;2.08;;;;;;;-149.78;100.00;50252.41;5105507;28;20057;-72
2022/05/12 02:31:38;;;;;;;4.55;1.88;;;;;;;-149.78;100.00;50244.59;5123087;28;20608;-71
2022/05/12 02:34:04;;;;;;;9.93;2.00;;;;;;;-149.78;100.00;50275.88;5123467;28;20891;-71
2022/05/12 02:36:29;;;;;;;5.88;2.10;;;;;;;-149.78;100.00;50213.28;5087612;28;20621;-71
2022/05/12 02:38:55;;;;;;;2.78;1.80;;;;;;;-149.78;100.00;50248.50;5123206;28;20608;-71
2022/05/12 02:41:20;;;;;;;4.95;2.17;;;;;;;-149.78;100.00;50283.69;5122971;28;20537;-71
2022/05/12 02:43:46;;;;;;;7.70;1.95;;;;;;;-149.78;100.00;50232.84;5104868;28;20027;-71
2022/05/12 02:46:13;;;;;;;4.00;1.90;;;;;;;-149.78;100.00;50268.03;5123654;28;20386;-71
2022/05/12 02:48:43;;;;;;;4.03;1.98;;;;;;;-149.78;100.00;50244.59;5104954;28;20031;-71
2022/05/12 02:51:09;;;;;;;5.53;1.65;;;;;;;-149.78;100.00;50228.94;5122983;28;20435;-72
2022/05/12 02:53:36;;;;;;;3.35;1.50;;;;;;;-149.78;100.00;50248.50;5101667;28;20416;-71
2022/05/12 02:56:03;;;;;;;4.45;1.92;;;;;;;-149.78;100.00;50291.50;5122628;28;20471;-71
2022/05/12 02:58:29;;;;;;;5.78;1.88;;;;;;;-149.78;100.00;50260.22;5123412;28;20513;-71
2022/05/12 03:00:55;;;;;;;3.20;1.60;;;;;;;-149.78;100.00;50252.41;5122644;28;20398;-71
2022/05/12 03:03:21;;;;;;;3.78;1.77;;;;;;;-149.78;100.00;50232.84;5123130;27;20463;-71
2022/05/12 03:05:47;;;;;;;6.38;1.77;;;;;;;-149.78;100.00;50234.81;5126169;27;20039;-71
2022/05/12 03:08:13;;;;;;;5.88;2.10;;;;;;;-149.78;100.00;50248.50;5091680;27;20051;-71
2022/05/12 03:10:39;;;;;;;2.75;1.80;;;;;;;-149.78;100.00;50250.44;5120097;27;20480;-71
2022/05/12 03:13:05;;;;;;;5.13;1.50;;;;;;;-149.78;100.00;50244.59;5103161;27;20095;-71
2022/05/12 03:15:31;;;;;;;6.20;1.85;;;;;;;-149.78;100.00;50266.09;5121883;27;20062;-72
2022/05/12 03:17:58;;;;;;;8.05;1.63;;;;;;;-149.78;100.00;50270.00;5123266;27;20035;-71
2022/05/12 03:20:26;;;;;;;4.43;1.80;;;;;;;-149.78;100.00;50264.13;5086244;27;20050;-72
2022/05/12 03:22:52;;;;;;;3.80;1.60;;;;;;;-149.78;100.00;50285.66;5121599;27;20049;-71
2022/05/12 03:25:20;;;;;;;4.60;1.40;;;;;;;-149.78;100.00;50275.88;5070225;27;20047;-71
2022/05/12 03:27:46;;;;;;;4.22;1.80;;;;;;;-149.78;100.00;50250.44;5122200;27;20054;-71
2022/05/12 03:30:15;;;;;;;4.72;2.10;;;;;;;-149.78;100.00;50248.50;5103713;27;20692;-71
2022/05/12 03:32:41;;;;;;;5.25;1.67;;;;;;;-149.78;100.00;50262.19;5102860;27;20462;-72
2022/05/12 03:35:12;;;;;;;7.03;1.80;;;;;;;-149.78;100.00;50264.13;5103713;27;20031;-71
2022/05/12 03:37:39;;;;;;;6.85;1.75;;;;;;;-149.78;100.00;50266.09;5103320;27;20824;-71
2022/05/12 03:40:06;;;;;;;4.57;2.10;;;;;;;-149.78;100.00;50248.50;5121912;27;20084;-71
2022/05/12 03:42:32;;;;;;;6.20;1.50;;;;;;;-149.78;100.00;50268.03;5122731;27;20231;-71
2022/05/12 03:44:59;;;;;;;5.18;1.73;;;;;;;-149.78;100.00;50295.44;5103004;27;20083;-71
2022/05/12 03:47:30;;;;;;;5.28;1.92;;;;;;;-149.78;100.00;50262.19;5102490;27;20039;-72
2022/05/12 03:50:03;;;;;;;2.60;1.70;;;;;;;-149.78;100.00;50252.41;5120370;27;20023;-72
2022/05/12 03:52:29;;;;;;;4.60;2.20;;;;;;;-149.78;100.00;50279.78;5102681;27;20031;-71
2022/05/12 03:54:55;;;;;;;4.85;1.90;;;;;;;-149.78;100.00;50271.97;5122339;27;20035;-71
2022/05/12 03:57:23;;;;;;;3.05;1.85;;;;;;;-149.78;100.00;50314.97;5121370;27;20488;-71
2022/05/12 03:59:50;;;;;;;8.93;2.53;;;;;;;-149.78;100.00;50299.34;5086568;27;20115;-71
2022/05/12 04:02:18;;;;;;;6.47;1.95;;;;;;;-149.78;100.00;50281.75;5121891;27;20500;-71
2022/05/12 04:04:46;;;;;;;5.60;2.08;;;;;;;-149.78;100.00;50299.34;5122198;27;20038;-71
2022/05/12 04:07:14;;;;;;;5.20;2.38;;;;;;;-149.78;100.00;50303.25;5120590;27;20046;-71
2022/05/12 04:09:40;;;;;;;6.18;2.35;;;;;;;-149.78;100.00;50299.34;5119857;27;20034;-71
2022/05/12 04:12:09;;;;;;;6.60;2.33;;;;;;;-149.78;100.00;50279.78;5067990;27;20034;-71
2022/05/12 04:14:38;;;;;;;5.15;2.30;;;;;;;-149.78;100.00;50248.50;5084183;27;20035;-71
2022/05/12 04:17:06;;;;;;;4.13;2.28;;;;;;;-149.78;100.00;50264.13;5121062;27;20034;-71
2022/05/12 04:19:31;;;;;;;9.45;2.67;;;;;;;-149.78;100.00;50277.81;5084767;27;20039;-71
2022/05/12 04:21:57;;;;;;;10.13;2.88;;;;;;;-149.78;100.00;50271.97;5120816;27;20037;-71
2022/05/12 04:24:23;;;;;;;9.50;3.30;;;;;;;-149.78;100.00;50285.66;5103115;27;20059;-71
2022/05/12 04:26:49;;;;;;;8.63;2.47;;;;;;;-149.78;100.00;50275.88;5121267;27;20031;-71
2022/05/12 04:29:14;;;;;;;5.55;2.50;;;;;;;-149.78;100.00;50260.22;5102438;27;20065;-71
2022/05/12 04:31:41;;;;;;;7.22;2.20;;;;;;;-149.78;100.00;50213.28;5103125;27;20041;-71
2022/05/12 04:36:54;;;;;;;6.70;2.50;;;;;;;-149.78;100.00;50226.97;5120749;27;20050;-71
2022/05/12 04:39:20;;;;;;;6.57;2.58;;;;;;;-149.78;100.00;50271.97;5101421;27;20039;-71
2022/05/12 04:41:46;;;;;;;6.97;1.92;;;;;;;-149.78;100.00;50271.97;5085001;27;20034;-71
2022/05/12 04:44:12;;;;;;;7.63;2.30;;;;;;;-149.78;100.00;50279.78;5102432;27;20043;-72
2022/05/12 04:46:40;;;;;;;7.75;2.17;;;;;;;-149.78;100.00;50256.31;5102210;27;20019;-71
2022/05/12 04:49:08;;;;;;;10.52;2.72;;;;;;;-149.78;100.00;50271.97;5084858;27;20538;-71
2022/05/12 04:51:34;;;;;;;9.80;2.50;;;;;;;-149.78;100.00;50291.50;5116913;27;20712;-71
2022/05/12 04:54:01;;;;;;;10.18;2.85;;;;;;;-149.78;100.00;50217.19;5099514;27;20031;-71
2022/05/12 04:56:27;;;;;;;7.93;2.67;;;;;;;-149.78;100.00;50236.75;5118208;27;20398;-71
2022/05/12 04:58:53;;;;;;;7.15;2.75;;;;;;;-149.78;100.00;50279.78;5083090;27;20134;-71
2022/05/12 05:01:19;;;;;;;5.78;2.10;;;;;;;-149.78;100.00;50281.75;5099570;27;20070;-71
2022/05/12 05:03:45;;;;;;;6.28;2.20;;;;;;;-149.78;100.00;50254.34;5101205;27;20055;-71
2022/05/12 05:06:11;;;;;;;8.45;2.58;;;;;;;-149.78;100.00;50252.41;5100154;27;20035;-72
2022/05/12 05:08:39;;;;;;;6.45;2.30;;;;;;;-149.78;100.00;50279.78;5099988;27;20035;-71
2022/05/12 05:11:06;;;;;;;6.22;2.33;;;;;;;-149.78;100.00;50248.50;5117819;27;20030;-71
2022/05/12 05:13:32;;;;;;;9.73;2.83;;;;;;;-149.78;100.00;50281.75;5100295;27;20479;-71
2022/05/12 05:15:59;;;;;;;4.45;2.50;;;;;;;-149.78;100.00;50234.81;5118550;27;20019;-72
2022/05/12 05:18:24;;;;;;;5.47;2.58;;;;;;;-149.78;100.00;50236.75;5118228;27;20108;-71
2022/05/12 05:20:50;;;;;;;7.47;2.30;;;;;;;-149.78;100.00;50256.31;5099815;27;20079;-71
2022/05/12 05:23:21;;;;;;;9.15;2.60;;;;;;;-149.78;100.00;50277.81;5118859;27;20035;-71
2022/05/12 05:25:51;;;;;;;7.00;2.53;;;;;;;-149.78;100.00;50244.59;5099636;27;20039;-71
2022/05/12 05:28:17;;;;;;;7.72;2.53;;;;;;;-149.78;100.00;50225.03;5116601;27;20335;-71
2022/05/12 05:30:43;;;;;;;8.32;2.60;;;;;;;-149.78;100.00;50240.66;5116867;27;20038;-72
2022/05/12 05:33:10;;;;;;;4.82;2.60;;;;;;;-149.78;100.00;50248.50;5117914;27;20027;-71
2022/05/12 05:35:36;;;;;;;6.10;2.65;;;;;;;-149.78;100.00;50248.50;5118207;27;20030;-71
2022/05/12 05:38:03;;;;;;;7.47;2.60;;;;;;;-149.78;100.00;50254.34;5082198;27;20047;-70
2022/05/12 05:40:29;;;;;;;5.53;2.92;;;;;;;-149.78;100.00;50279.78;5098682;27;20123;-70
2022/05/12 05:42:55;;;;;;;8.23;3.00;;;;;;;-149.78;100.00;50260.22;5096245;27;20034;-68
2022/05/12 05:45:22;;;;;;;11.77;3.08;;;;;;;-149.78;100.00;50244.59;5096627;27;20067;-72
2022/05/12 05:47:54;;;;;;;10.85;3.22;;;;;;;-149.78;100.00;50232.84;5116022;27;20494;-71
2022/05/12 05:50:24;;;;;;;7.68;2.90;;;;;;;-149.78;100.00;50244.59;5115271;27;20750;-68
2022/05/12 05:53:35;;;;;;;7.90;2.83;;;;;;;-149.78;100.00;50248.50;5116161;27;20059;-69
2022/05/12 05:55:36;;;;;;;11.10;3.85;;;;;;;-149.78;100.00;50287.59;5103233;27;20076;-73
2022/05/12 05:58:04;;;;;;;11.80;4.03;;;;;;;-149.78;100.00;50256.31;5114644;27;20471;-71
2022/05/12 06:00:31;;;;;;;12.25;4.22;;;;;;;-149.78;100.00;50244.59;5097999;28;20586;-69
2022/05/12 06:02:58;;;;;;;9.77;3.80;;;;;;;-149.78;100.00;50240.66;5099227;28;20039;-73
2022/05/12 06:05:24;;;;;;;9.50;3.47;;;;;;;-149.78;100.00;50209.38;5098058;28;20050;-71
2022/05/12 06:07:50;;;;;;;9.07;3.10;;;;;;;-149.78;100.00;50244.59;5099115;28;20600;-72
2022/05/12 06:10:16;;;;;;;7.20;2.85;;;;;;;-149.78;100.00;50230.88;5117402;28;20035;-73
2022/05/12 06:12:42;;;;;;;9.40;3.10;;;;;;;-149.78;100.00;50260.22;5097946;28;20027;-70
2022/05/12 06:15:09;;;;;;;7.00;3.22;;;;;;;-149.78;100.00;50228.94;5116114;28;21447;-72
2022/05/12 06:17:36;;;;;;;6.35;3.13;;;;;;;-149.78;100.00;50228.94;5117967;28;20041;-72
2022/05/12 06:20:06;;;;;;;7.90;3.42;;;;;;;-149.78;100.00;50197.66;5097741;28;20035;-73
2022/05/12 06:22:33;;;;;;;6.97;2.97;;;;;;;-149.78;100.00;50207.44;5098329;28;20028;-69
2022/05/12 06:24:59;;;;;;;12.90;4.03;;;;;;;-149.78;100.00;50205.47;5114051;28;20039;-74
2022/05/12 06:27:25;;;;;;;8.95;4.28;;;;;;;-149.78;100.00;50260.22;5117368;28;20035;-73
2022/05/12 06:29:51;;;;;;;8.15;4.10;;;;;;;-149.78;100.00;50230.88;5100071;28;20043;-74
2022/05/12 06:32:17;;;;;;;9.13;3.92;;;;;;;-149.78;100.00;50189.81;5082040;28;20118;-73
2022/05/12 06:34:43;;;;;;;7.88;3.30;;;;;;;-149.78;100.00;50178.09;5098108;28;20039;-72
2022/05/12 06:37:13;;;;;;;8.27;3.25;;;;;;;-149.78;100.00;50170.25;5121324;28;20038;-73
2022/05/12 06:39:40;;;;;;;11.15;3.38;;;;;;;-149.78;100.00;50197.66;5116784;27;20023;-74
2022/05/12 06:42:06;;;;;;;8.25;2.85;;;;;;;-149.78;100.00;50185.91;5135905;27;20043;-72
2022/05/12 06:44:34;;;;;;;7.57;2.97;;;;;;;-149.78;100.00;50166.34;5118313;27;20151;-74
2022/05/12 06:47:01;;;;;;;6.40;2.60;;;;;;;-149.78;100.00;50174.19;5100861;27;20073;-71
2022/05/12 06:49:28;;;;;;;5.25;2.63;;;;;;;-149.78;100.00;50162.44;5101670;27;20028;-74
2022/05/12 06:51:55;;;;;;;6.32;3.40;;;;;;;-149.78;100.00;50154.63;5135904;27;20080;-74
2022/05/12 06:54:22;;;;;;;7.38;3.30;;;;;;;-149.78;100.00;50103.78;5127582;27;20042;-73
2022/05/12 06:56:49;;;;;;;7.85;3.35;;;;;;;-149.78;100.00;50162.44;5101587;27;20081;-74
2022/05/12 06:59:15;;;;;;;6.05;3.20;;;;;;;-149.78;100.00;50160.50;5104434;27;20094;-74
2022/05/12 07:01:41;;;;;;;6.53;2.70;;;;;;;-149.78;100.00;50088.13;5127334;27;20036;-73
2022/05/12 07:04:09;;;;;;;6.30;2.17;;;;;;;-149.78;100.00;50084.22;5090723;27;20034;-74
2022/05/12 07:06:35;;;;;;;5.88;2.92;;;;;;;-149.78;100.00;50111.59;5120635;27;20024;-74
2022/05/12 07:09:01;;;;;;;7.10;3.42;;;;;;;-149.78;100.00;50133.09;5094165;28;20047;-74
2022/05/12 07:11:26;;;;;;;6.63;4.45;;;;;;;-149.78;100.00;50095.94;5117824;27;20046;-74
2022/05/12 07:13:52;;;;;;;7.68;4.00;;;;;;;-149.78;100.00;50094.00;5118746;27;20035;-74
2022/05/12 07:16:18;;;;;;;6.05;3.42;;;;;;;-149.78;100.00;50121.38;5126644;27;20023;-74
2022/05/12 07:18:44;;;;;;;7.97;3.78;;;;;;;-149.78;100.00;50099.88;5124613;27;20738;-74
2022/05/12 07:26:40;;;;;;;8.05;2.97;;;;;;;-149.78;100.00;49951.25;5089507;27;20087;-75
2022/05/12 07:29:12;;;;;;;5.85;3.13;;;;;;;-149.78;100.00;49951.25;5116571;27;20031;-75
2022/05/12 07:31:37;;;;;;;;;;;;;;;-149.78;100.00;50021.63;5122697;27;20030;-74
2022/05/12 07:34:03;;;;;;;9.70;4.85;;;;;;;-149.78;100.00;50043.16;5097908;28;19915;-75
2022/05/12 07:36:39;;;;;;;7.40;4.53;;;;;;;-149.78;100.00;50013.81;5124881;27;20019;-76
2022/05/12 07:39:05;;;;;;;8.00;4.30;;;;;;;-149.78;100.00;50060.75;5116515;27;20031;-75
2022/05/12 07:41:32;;;;;;;5.68;3.20;;;;;;;-149.78;87.25;50041.19;5130661;27;20031;-75
2022/05/12 07:43:59;;;;;;;6.85;3.58;;;;;;;-149.78;92.90;50017.72;5126730;27;20049;-75
2022/05/12 07:46:28;;;;;;;8.57;3.38;;;;;;;-149.78;84.35;50009.91;5105879;27;20046;-75
2022/05/12 07:48:55;;;;;;;5.07;2.78;;;;;;;-149.78;77.20;49939.50;5126670;27;20093;-75
2022/05/12 07:51:21;;;;;;;6.13;3.03;;;;;;;-149.78;71.10;49998.19;5123986;27;20610;-75
2022/05/12 07:53:48;;;;;;;7.72;3.45;;;;;;;-149.78;64.55;49931.69;5101373;27;20378;-75
2022/05/12 07:56:16;;;;;;;5.10;3.00;;;;;;;-149.78;62.39;49994.25;5117718;27;20027;-75
2022/05/12 07:58:43;;;;;;;5.82;3.30;;;;;;;-149.78;63.13;50007.94;5114708;28;20118;-74
2022/05/12 08:01:10;;;;;;;5.70;2.83;;;;;;;-149.78;60.48;50013.81;5114683;28;20106;-74
2022/05/12 08:03:37;;;;;;;10.07;3.40;;;;;;;-149.78;61.81;50009.91;5096536;28;20036;-73
2022/05/12 08:06:03;;;;;;;5.93;3.47;;;;;;;-149.78;60.03;49998.19;5122914;27;20374;-74
2022/05/12 08:08:29;;;;;;;6.20;3.25;;;;;;;-149.78;59.78;50029.47;5134880;27;20472;-74
2022/05/12 08:10:54;;;;;;;6.53;3.28;;;;;;;-149.78;60.79;50013.81;5099680;27;20039;-74
2022/05/12 08:13:21;;;;;;;10.27;3.90;;;;;;;-149.78;67.10;50052.94;5134962;27;20126;-74
2022/05/12 08:15:49;;;;;;;7.70;4.70;;;;;;;-149.78;77.09;50064.66;5099902;27;20032;-75
2022/05/12 08:18:21;;;;;;;8.15;4.32;;;;;;;-149.78;77.93;50105.72;5093013;28;20676;-74
2022/05/12 08:20:49;;;;;;;6.70;3.72;;;;;;;-149.78;77.39;50080.31;5113666;28;20390;-75
2022/05/12 08:23:15;;;;;;;5.53;3.90;;;;;;;-149.78;64.42;50072.50;5079132;28;20389;-75
2022/05/12 08:25:42;;;;;;;6.63;3.88;;;;;;;-149.78;62.18;50054.88;5111818;27;20035;-75
2022/05/12 08:28:08;;;;;;;10.15;4.13;;;;;;;-149.78;62.64;50041.19;5128066;27;20416;-74
2022/05/12 08:30:34;;;;;;;7.32;3.90;;;;;;;-149.78;60.90;50033.38;5134165;27;20031;-74
2022/05/12 08:33:00;;;;;;;6.18;3.33;;;;;;;-149.78;55.94;50025.56;5109020;27;20398;-74
2022/05/12 08:35:27;;;;;;;6.38;3.70;;;;;;;-149.78;60.06;50009.91;5098093;27;20083;-74
2022/05/12 08:37:53;;;;;;;6.82;3.78;;;;;;;-149.78;62.75;50029.47;5134310;27;20042;-74
2022/05/12 08:40:48;;;;;;;5.15;3.50;;;;;;;-149.78;61.29;50033.38;5098744;27;20074;-74
2022/05/12 08:43:18;;;;;;;5.65;3.63;;;;;;;-149.78;61.52;50029.47;5100828;27;20138;-74
2022/05/12 08:45:44;;;;;;;4.10;3.33;;;;;;;-149.78;67.01;50095.94;5133823;27;20470;-74
2022/05/12 08:48:12;;;;;;;5.05;3.35;;;;;;;-149.78;71.87;50084.22;5115738;27;20035;-74
2022/05/12 08:50:40;;;;;;;8.82;3.78;;;;;;;-149.78;74.04;50127.25;5133820;27;20223;-74
2022/05/12 08:53:18;;;;;;;3.40;3.10;;;;;;;-149.78;77.21;50158.53;5115424;27;20035;-74
2022/05/12 08:55:51;;;;;;;5.70;3.63;;;;;;;-149.78;87.70;50115.50;5134061;27;20027;-74
2022/05/12 08:58:20;;;;;;;6.60;3.20;;;;;;;-149.78;94.11;50178.09;5133761;27;20125;-73
2022/05/12 09:01:09;;;;;;;4.85;3.15;;;;;;;-149.78;98.64;50142.88;5132651;27;20026;-74
2022/05/12 09:03:59;;;;;;;5.10;3.10;;;;;;;-149.78;95.09;50172.22;5117918;27;20118;-75
2022/05/12 09:06:48;;;;;;;7.25;3.38;;;;;;;-149.78;100.00;50170.25;5129827;27;20106;-74
2022/05/12 09:09:32;;;;;;;3.42;2.20;;;;;;;-149.78;95.03;50187.88;5128970;27;20125;-74
2022/05/12 09:12:32;;;;;;;5.18;2.72;;;;;;;-149.78;100.00;50182.00;5133727;27;20039;-75
2022/05/12 09:15:16;;;;;;;7.47;2.72;;;;;;;-149.78;100.00;50166.34;5115139;27;20863;-75
2022/05/12 09:17:56;;;;;;;3.78;2.60;;;;;;;-149.78;100.00;50201.56;5132861;27;20023;-74
2022/05/12 09:20:24;;;;;;;4.40;2.90;;;;;;;-149.78;100.00;50195.69;5115253;27;20042;-74
2022/05/12 09:22:50;;;;;;;8.70;3.85;;;;;;;-149.78;100.00;50215.25;5115251;27;20482;-74
2022/05/12 09:25:29;;;;;;;10.60;4.13;;;;;;;-149.78;100.00;50205.47;5098276;27;20031;-75
2022/05/12 09:27:58;;;;;;;5.13;3.40;;;;;;;-149.78;100.00;50211.34;5115264;27;20058;-75
2022/05/12 09:30:33;;;;;;;7.63;3.28;;;;;;;-149.78;100.00;50182.00;5115716;27;20058;-75
2022/05/12 09:33:01;;;;;;;9.88;3.30;;;;;;;-149.78;100.00;50170.25;5129705;27;20035;-75
2022/05/12 09:35:31;;;;;;;5.40;3.17;;;;;;;-149.78;100.00;50197.66;5123076;27;20019;-75
2022/05/12 09:37:57;;;;;;;7.47;3.35;;;;;;;-149.78;100.00;50189.81;5106863;27;20034;-73
2022/05/12 09:40:37;;;;;;;4.25;2.70;;;;;;;-149.78;100.00;50211.34;5114852;27;20486;-72
2022/05/12 09:43:17;;;;;;;5.15;2.58;;;;;;;-149.78;100.00;50182.00;5133091;27;20035;-74
2022/05/12 09:45:44;;;;;;;3.60;2.45;;;;;;;-149.78;100.00;50201.56;5094156;28;20135;-74
2022/05/12 09:48:24;;;;;;;7.40;2.25;;;;;;;-149.78;93.99;50201.56;5103159;28;20370;-74
2022/05/12 09:50:51;;;;;;;5.82;2.10;;;;;;;-149.78;95.51;50170.25;5092151;28;20028;-74
2022/05/12 09:53:30;;;;;;;2.95;1.95;;;;;;;-149.78;95.28;50166.34;5092200;28;20028;-74
2022/05/12 09:56:11;;;;;;;4.72;2.38;;;;;;;-149.78;84.05;50154.63;5092417;28;20062;-75
2022/05/12 09:58:48;;;;;;;4.90;2.22;;;;;;;-149.78;99.78;50154.63;5094491;28;20028;-75
2022/05/12 10:01:19;;;;;;;3.70;1.98;;;;;;;-149.78;92.94;50205.47;5092185;28;20028;-74
2022/05/12 10:09:21;;;;;;;5.75;2.88;;;;;;;-149.78;86.95;50142.88;5091031;28;20101;-75
2022/05/12 10:11:55;;;;;;;6.25;2.30;;;;;;;-149.78;85.34;50189.81;5092123;28;20375;-75
2022/05/12 10:14:40;;;;;;;17.10;2.10;;;;;;;-149.78;87.27;50148.75;5092080;28;20035;-73
2022/05/12 10:17:29;;;;;;;5.60;2.67;;;;;;;-149.78;78.06;50121.38;5116512;28;20130;-73
2022/05/12 10:19:58;;;;;;;5.05;2.90;;;;;;;-149.78;76.67;50150.72;5097892;28;20082;-73
2022/05/12 10:23:04;;;;;;;5.78;2.90;;;;;;;-149.78;79.58;50174.19;5116544;28;20042;-75
2022/05/12 10:25:56;;;;;;;7.15;3.20;;;;;;;-149.78;83.71;50162.44;5115250;28;20028;-74
2022/05/12 10:28:44;;;;;;;5.78;3.45;;;;;;;-149.78;88.03;50178.09;5115927;28;20467;-73
2022/05/12 10:31:44;;;;;;;5.53;2.95;;;;;;;-149.78;83.96;50160.50;5116454;28;20087;-72
2022/05/12 10:34:37;;;;;;;3.90;2.55;;;;;;;-149.78;75.72;50138.97;5081946;28;20186;-74
2022/05/12 10:37:12;;;;;;;4.25;2.40;;;;;;;-149.78;75.17;50150.72;5114671;28;20477;-73
2022/05/12 10:39:50;;;;;;;7.75;2.90;;;;;;;-149.78;79.19;50158.53;5100957;28;20028;-73
2022/05/12 10:42:46;;;;;;;5.00;3.53;;;;;;;-149.78;79.36;50121.38;5100925;28;20378;-73
2022/05/12 10:45:24;;;;;;;8.95;5.45;;;;;;;-149.78;82.60;50154.63;5117859;27;20602;-73
2022/05/12 10:48:17;;;;;;;10.38;5.60;;;;;;;-149.78;78.59;50142.88;5130646;27;20031;-74
2022/05/12 10:50:49;;;;;;;8.55;5.50;;;;;;;-149.78;76.41;50154.63;5136474;27;20015;-71
2022/05/12 10:53:24;;;;;;;7.82;5.68;;;;;;;-149.78;75.71;50180.03;5136477;27;20042;-74
2022/05/12 10:55:59;;;;;;;10.02;5.90;;;;;;;-149.78;74.97;50150.72;5136241;27;20027;-74
2022/05/12 10:58:37;;;;;;;9.23;5.82;;;;;;;-149.78;77.99;50121.38;5111806;27;20110;-73
2022/05/12 11:01:17;;;;;;;8.00;5.03;;;;;;;-149.78;78.19;50127.25;5136208;27;20055;-73
2022/05/12 11:03:58;;;;;;;6.40;4.72;;;;;;;-149.78;75.54;50115.50;5136062;27;20028;-73
2022/05/12 11:06:49;;;;;;;6.35;4.65;;;;;;;-149.78;73.44;50148.75;5096221;28;20415;-73
2022/05/12 11:09:22;;;;;;;10.50;4.88;;;;;;;-149.78;73.40;50176.13;5128730;27;20035;-73
2022/05/12 11:11:52;;;;;;;5.13;4.10;;;;;;;-149.78;71.76;50138.97;5115276;28;20386;-73
2022/05/12 11:14:38;;;;;;;10.02;4.35;;;;;;;-149.78;75.30;50107.69;5109061;27;20478;-73
2022/05/12 11:17:24;;;;;;;5.03;4.18;;;;;;;-149.78;69.53;50097.91;5135630;27;20034;-74
2022/05/12 11:20:12;;;;;;;8.60;4.07;;;;;;;-149.78;65.94;50103.78;5135994;27;20037;-69
2022/05/12 11:22:47;;;;;;;8.45;4.00;;;;;;;-149.78;66.07;50154.63;5114831;27;20035;-74
2022/05/12 11:25:19;;;;;;;6.95;3.10;;;;;;;-149.78;65.82;50107.69;5116742;27;20031;-73
2022/05/12 11:27:47;;;;;;;8.43;2.55;;;;;;;-149.78;64.00;50131.16;5116986;27;20043;-74
2022/05/12 11:30:22;;;;;;;6.18;2.67;;;;;;;-149.78;63.22;50090.09;5122386;27;20110;-74
2022/05/12 11:33:20;;;;;;;8.95;2.20;;;;;;;-149.78;60.96;50092.03;5099174;27;20395;-73
2022/05/12 11:35:50;;;;;;;6.60;2.05;;;;;;;-149.78;62.93;50088.13;5125777;27;20024;-74
2022/05/12 11:38:43;;;;;;;3.13;1.98;;;;;;;-149.78;59.85;50092.03;5107868;27;20031;-74